Terminal Aerodrome Forecast
Issued by NWS

Home | Current Version | Previous Version | Text Only | Print | Product List | Glossary On
Versions: 1 2 3 4 5 6 7 8 9 10 11 12 13 14 15 16 17 18
000
FTUS44 KMAF 272300
TAFCNM
TAF
KCNM 272329Z 2800/2824 14010KT P6SM OVC020
     FM280300 14007KT 4SM -FZDZ OVC006
     FM281700 14008KT P6SM BKN015=

USA.gov is the U.S. government's official web portal to all federal, state and local government web resources and services.